Blue Mountain, MS (38610)

7:04 PM CDT on July 06, 2015 (GMT -0500)
Northhaven | | Change Station
CLOSE
Current Station
Personal Weather Station
Location: New Albany, MS
Elevation: 364 ft
Nearby Weather Stations

Elev 364 ft 34.51 °N, 89.00 °W | Updated 8 minutes ago

Mostly Cloudy
Mostly Cloudy
82.2 °F
Feels Like 91 °F
N
0.0
Wind Variable Wind from SSE

Today
High -- | Low -- °F
--% Chance of Precip.
Yesterday
High -- | Low -- °F
Precip. -- in
5:48 AM 8:12 PM
Waning Gibbous, 71% visible
Pressure 30.03 in
Visibility 10.0 miles
Clouds Clear
Heat Index 91 °F
Dew Point 77 °F
Humidity 85%
Rainfall 0.00 in
Snow Depth Not available.
UV 1 out of 12
Pollen 3.00 out of 12
Air Quality Not available.
Flu Activity Not available.
METAR KCRX 062355Z AUTO 19005KT 10SM CLR 28/22 A3003 RMK AO2

More Conditions Fewer Conditions

Pressure 30.03 in
Visibility 10.0 miles
Clouds Clear
Heat Index 91 °F
Dew Point 77 °F
Humidity 85%
Rainfall 0.00 in
Snow Depth Not available.
UV 1 out of 12
Pollen 3.00 out of 12
Air Quality Not available.
Flu Activity Not available.
METAR KCRX 062355Z AUTO 19005KT 10SM CLR 28/22 A3003 RMK AO2

More Conditions Fewer Conditions

10-Day Weather Forecast

×

Almanac

Astronomy

Jul. 06, 2015 Rise Set
Actual Time
Civil Twilight
Nautical Twilight
Astronomical Twilight
Moon
Length of Visible Light
Length of Day
Tomorrow will be .
, % of the Moon is Illuminated

Today's Extremes

State Highs State Lows

Community

WunderPhotos

Upload Photos

1,835,692 photos uploaded!

WunderBlogs® & News

Nearby

Air Quality

  Air Quality AQ Index Pollutant
Not available.

Snow Depth

Station Depth Elevation

Earthquake Activity

City Distance Mag. Time & Date
Minimum magnitude displayed is 2.5.

Coastal Water Temperatures

Place Temperature

Stations

Nearby Weather Stations

Station Location Temp. Windchill Dew Point Humidity Wind Precip. Elev Updated Type